createdAt,value
2023-02-19T00:00:30.684Z,98165.84
2023-02-19T00:01:36.817Z,98164.53
2023-02-19T00:02:39.579Z,98172.06
2023-02-19T00:03:44.053Z,98164.66
2023-02-19T00:04:47.111Z,98170.16
2023-02-19T00:05:49.988Z,98174.34
2023-02-19T00:06:52.821Z,98164.53
2023-02-19T00:07:55.618Z,98170.59
2023-02-19T00:08:59.171Z,98158.91
2023-02-19T00:10:01.984Z,98180.13
2023-02-19T00:11:08.601Z,98169.00
2023-02-19T00:12:12.014Z,98168.88
2023-02-19T00:13:15.254Z,98171.63
2023-02-19T00:14:20.941Z,98167.00
2023-02-19T00:15:23.821Z,98169.91
2023-02-19T00:16:30.495Z,98163.38
2023-02-19T00:17:33.812Z,98165.84
2023-02-19T00:18:36.935Z,98166.97
2023-02-19T00:19:39.866Z,98162.06
2023-02-19T00:20:43.335Z,98161.75
2023-02-19T00:21:46.526Z,98160.06
2023-02-19T00:22:49.334Z,98157.44
2023-02-19T00:24:01.056Z,98151.53
2023-02-19T00:25:04.013Z,98157.88
2023-02-19T00:26:18.535Z,98158.03
2023-02-19T00:27:21.722Z,98162.06
2023-02-19T00:28:24.813Z,98161.91
2023-02-19T00:29:28.014Z,98167.41
2023-02-19T00:30:31.201Z,98164.22
2023-02-19T00:31:36.207Z,98165.38
2023-02-19T00:32:39.263Z,98159.03
2023-02-19T00:33:42.460Z,98167.84
2023-02-19T00:34:45.130Z,98166.25
2023-02-19T00:35:48.018Z,98172.44
2023-02-19T00:36:51.017Z,98167.41
2023-02-19T00:37:53.865Z,98163.34
2023-02-19T00:38:57.303Z,98168.41
2023-02-19T00:40:00.062Z,98164.81
2023-02-19T00:41:19.390Z,98157.88
2023-02-19T00:42:22.192Z,98153.09
2023-02-19T00:43:24.975Z,98158.31
2023-02-19T00:44:28.014Z,98150.78
2023-02-19T00:45:30.907Z,98151.50
2023-02-19T00:46:39.383Z,98150.06
2023-02-19T00:47:42.380Z,98149.91
2023-02-19T00:48:45.434Z,98150.38
2023-02-19T00:49:48.236Z,98152.41
2023-02-19T00:50:51.223Z,98158.59
2023-02-19T00:51:54.186Z,98155.84
2023-02-19T00:52:56.910Z,98158.75
2023-02-19T00:54:00.469Z,98159.16
2023-02-19T00:55:04.061Z,98158.44
2023-02-19T00:56:07.903Z,98158.31
2023-02-19T00:57:10.701Z,98154.13
2023-02-19T00:58:14.257Z,98168.69
2023-02-19T00:59:17.169Z,98157.31
2023-02-19T01:00:20.139Z,98157.00
2023-02-19T01:01:23.461Z,98155.13
2023-02-19T01:02:27.103Z,98156.28
2023-02-19T01:03:30.225Z,98154.69
2023-02-19T01:04:33.432Z,98145.00
2023-02-19T01:05:36.175Z,98146.75
2023-02-19T01:06:39.657Z,98150.06
2023-02-19T01:07:42.462Z,98144.28
2023-02-19T01:08:46.790Z,98147.31
2023-02-19T01:09:49.858Z,98148.63
2023-02-19T01:10:52.717Z,98150.78
2023-02-19T01:11:55.590Z,98157.31
2023-02-19T01:12:58.410Z,98158.03
2023-02-19T01:14:02.635Z,98151.09
2023-02-19T01:15:05.734Z,98156.56
2023-02-19T01:16:14.687Z,98151.66
2023-02-19T01:17:17.598Z,98148.78
2023-02-19T01:18:20.867Z,98143.88
2023-02-19T01:19:24.213Z,98147.91
2023-02-19T01:20:27.772Z,98141.72
2023-02-19T01:21:31.372Z,98137.50
2023-02-19T01:22:34.225Z,98140.97
2023-02-19T01:23:37.036Z,98141.09
2023-02-19T01:24:39.962Z,98141.41
2023-02-19T01:25:43.081Z,98146.34
2023-02-19T01:26:46.149Z,98143.72
2023-02-19T01:27:49.556Z,98135.19
2023-02-19T01:28:53.562Z,98146.75
2023-02-19T01:29:56.424Z,98139.97
2023-02-19T01:31:07.454Z,98138.66
2023-02-19T01:32:10.737Z,98137.34
2023-02-19T01:33:13.807Z,98140.09
2023-02-19T01:34:16.852Z,98152.97
2023-02-19T01:35:19.692Z,98149.78
2023-02-19T01:36:23.240Z,98146.31
2023-02-19T01:37:26.083Z,98139.97
2023-02-19T01:38:28.997Z,98148.91
2023-02-19T01:39:32.160Z,98154.28
2023-02-19T01:40:35.329Z,98143.13
2023-02-19T01:41:40.890Z,98148.63
2023-02-19T01:42:44.550Z,98145.28
2023-02-19T01:44:05.014Z,98136.50
2023-02-19T01:45:32.633Z,98135.19
2023-02-19T01:46:39.832Z,98124.94
2023-02-19T01:47:42.863Z,98128.56
2023-02-19T01:48:46.816Z,98125.50
2023-02-19T01:49:57.140Z,98130.72
2023-02-19T01:51:11.150Z,98127.41
2023-02-19T01:52:22.753Z,98129.12
2023-02-19T01:53:30.002Z,98125.94
2023-02-19T01:54:38.448Z,98133.16
2023-02-19T01:55:42.798Z,98123.19
2023-02-19T01:56:48.205Z,98119.72
2023-02-19T01:57:55.272Z,98126.34
2023-02-19T01:58:59.358Z,98115.12
2023-02-19T02:00:10.365Z,98115.38
2023-02-19T02:01:13.991Z,98118.00
2023-02-19T02:02:17.257Z,98122.75
2023-02-19T02:03:21.057Z,98131.28
2023-02-19T02:04:24.392Z,98123.34
2023-02-19T02:05:41.672Z,98126.09
2023-02-19T02:06:50.746Z,98113.22
2023-02-19T02:08:12.364Z,98107.03
2023-02-19T02:09:35.768Z,98111.37
2023-02-19T02:10:38.933Z,98119.72
2023-02-19T02:11:50.609Z,98119.03
2023-02-19T02:12:56.611Z,98126.94
2023-02-19T02:13:59.569Z,98116.69
2023-02-19T02:15:03.197Z,98125.94
2023-02-19T02:16:15.146Z,98127.25
2023-02-19T02:17:26.900Z,98112.38
2023-02-19T02:18:45.051Z,98109.31
2023-02-19T02:20:02.932Z,98109.50
2023-02-19T02:21:21.933Z,98108.34
2023-02-19T02:22:28.858Z,98112.22
2023-02-19T02:23:57.912Z,98114.38
2023-02-19T02:25:19.274Z,98114.53
2023-02-19T02:26:42.745Z,98110.91
2023-02-19T02:28:14.377Z,98112.81
2023-02-19T02:29:23.191Z,98114.09
2023-02-19T02:30:40.291Z,98109.78
2023-02-19T02:31:50.246Z,98116.25
2023-02-19T02:33:07.332Z,98104.41
2023-02-19T02:34:24.867Z,98106.44
2023-02-19T02:35:33.213Z,98113.38
2023-02-19T02:36:47.399Z,98104.59
2023-02-19T02:37:53.394Z,98098.50
2023-02-19T02:38:58.607Z,98104.59
2023-02-19T02:40:03.312Z,98102.69
2023-02-19T02:41:07.036Z,98100.38
2023-02-19T02:42:28.038Z,98105.56
2023-02-19T02:43:31.357Z,98107.75
2023-02-19T02:44:35.883Z,98098.66
2023-02-19T02:45:40.164Z,98104.41
2023-02-19T02:46:45.526Z,98106.31
2023-02-19T02:47:53.211Z,98105.00
2023-02-19T02:49:05.752Z,98106.28
2023-02-19T02:50:25.879Z,98104.56
2023-02-19T02:51:37.990Z,98099.38
2023-02-19T02:53:03.703Z,98099.94
2023-02-19T02:54:47.440Z,98095.47
2023-02-19T02:55:53.520Z,98103.28
2023-02-19T02:56:58.760Z,98101.13
2023-02-19T02:58:02.653Z,98099.38
2023-02-19T02:59:09.500Z,98101.81
2023-02-19T03:00:13.461Z,98100.09
2023-02-19T03:01:40.018Z,98103.53
2023-02-19T03:02:44.318Z,98105.25
2023-02-19T03:03:52.442Z,98103.53
2023-02-19T03:05:31.343Z,98101.94
2023-02-19T03:06:36.594Z,98097.31
2023-02-19T03:07:45.612Z,98091.66
2023-02-19T03:08:52.777Z,98087.78
2023-02-19T03:09:58.684Z,98093.69
2023-02-19T03:11:26.414Z,98092.25
2023-02-19T03:12:49.663Z,98089.50
2023-02-19T03:14:17.680Z,98091.66
2023-02-19T03:15:40.390Z,98094.72
2023-02-19T03:17:03.854Z,98093.13
2023-02-19T03:18:28.763Z,98092.69
2023-02-19T03:19:38.135Z,98093.28
2023-02-19T03:20:46.894Z,98093.13
2023-02-19T03:21:59.541Z,98097.63
2023-02-19T03:23:02.618Z,98098.19
2023-02-19T03:24:27.426Z,98097.31
2023-02-19T03:25:51.263Z,98102.81
2023-02-19T03:26:56.176Z,98104.69
2023-02-19T03:28:01.977Z,98103.37
2023-02-19T03:29:23.256Z,98100.63
2023-02-19T03:30:30.810Z,98106.72
2023-02-19T03:31:35.349Z,98101.09
2023-02-19T03:32:46.644Z,98097.91
2023-02-19T03:33:55.968Z,98093.59
2023-02-19T03:35:06.317Z,98094.72
2023-02-19T03:36:13.516Z,98096.75
2023-02-19T03:37:25.379Z,98096.03
2023-02-19T03:38:37.131Z,98102.34
2023-02-19T03:39:44.658Z,98099.47
2023-02-19T03:41:01.020Z,98100.63
2023-02-19T03:42:12.749Z,98099.75
2023-02-19T03:43:30.884Z,98097.59
2023-02-19T03:44:52.559Z,98100.75
2023-02-19T03:46:07.765Z,98105.66
2023-02-19T03:47:25.692Z,98101.03
2023-02-19T03:48:35.266Z,98109.66
2023-02-19T03:49:55.308Z,98103.63
2023-02-19T03:51:26.145Z,98103.47
2023-02-19T03:52:42.019Z,98102.28
2023-02-19T03:53:44.761Z,98105.19
2023-02-19T03:54:50.910Z,98104.31
2023-02-19T03:56:16.535Z,98101.44
2023-02-19T03:57:32.107Z,98090.34
2023-02-19T03:58:51.691Z,98091.94
2023-02-19T04:00:38.192Z,98091.06
2023-02-19T04:02:39.778Z,98097.97
2023-02-19T04:04:01.857Z,98092.50
2023-02-19T04:05:09.938Z,98102.19
2023-02-19T04:06:18.061Z,98097.16
2023-02-19T04:07:22.420Z,98096.00
2023-02-19T04:08:27.191Z,98093.84
2023-02-19T04:09:44.110Z,98105.81
2023-02-19T04:10:48.021Z,98099.91
2023-02-19T04:11:53.024Z,98100.47
2023-02-19T04:13:01.661Z,98096.13
2023-02-19T04:14:23.471Z,98098.16
2023-02-19T04:15:31.545Z,98094.56
2023-02-19T04:16:39.110Z,98106.38
2023-02-19T04:17:54.837Z,98097.75
2023-02-19T04:19:04.627Z,98096.88
2023-02-19T04:20:10.381Z,98097.44
2023-02-19T04:21:15.874Z,98105.53
2023-02-19T04:22:20.301Z,98100.16
2023-02-19T04:23:27.099Z,98096.53
2023-02-19T04:24:43.072Z,98099.16
2023-02-19T04:25:49.147Z,98111.09
2023-02-19T04:26:53.275Z,98099.97
2023-02-19T04:27:56.388Z,98106.19
2023-02-19T04:28:59.505Z,98105.75
2023-02-19T04:30:02.523Z,98098.13
2023-02-19T04:31:07.051Z,98106.03
2023-02-19T04:32:13.680Z,98107.75
2023-02-19T04:33:16.601Z,98117.97
2023-02-19T04:34:19.492Z,98113.22
2023-02-19T04:35:22.407Z,98112.94
2023-02-19T04:36:25.338Z,98102.28
2023-02-19T04:37:28.159Z,98116.13
2023-02-19T04:38:33.878Z,98115.22
2023-02-19T04:39:36.820Z,98107.88
2023-02-19T04:40:40.047Z,98101.22
2023-02-19T04:41:42.978Z,98100.75
2023-02-19T04:42:45.902Z,98096.88
2023-02-19T04:43:48.942Z,98094.28
2023-02-19T04:44:51.961Z,98100.50
2023-02-19T04:45:54.917Z,98101.16
2023-02-19T04:46:57.997Z,98115.00
2023-02-19T04:48:01.401Z,98114.81
2023-02-19T04:49:04.313Z,98124.66
2023-02-19T04:50:08.054Z,98129.81
2023-02-19T04:51:11.543Z,98129.75
2023-02-19T04:52:14.665Z,98132.59
2023-02-19T04:53:17.619Z,98128.25
2023-02-19T04:54:20.560Z,98126.81
2023-02-19T04:55:23.421Z,98130.69
2023-02-19T04:56:26.425Z,98122.31
2023-02-19T04:57:29.441Z,98120.59
2023-02-19T04:58:32.264Z,98118.84
2023-02-19T04:59:35.089Z,98113.38
2023-02-19T05:00:37.964Z,98112.25
2023-02-19T05:01:41.306Z,98102.41
2023-02-19T05:02:44.199Z,98103.56
2023-02-19T05:03:47.389Z,98102.84
2023-02-19T05:04:50.352Z,98104.13
2023-02-19T05:05:53.535Z,98099.94
2023-02-19T05:06:56.450Z,98102.50
2023-02-19T05:07:59.538Z,98108.69
2023-02-19T05:09:02.850Z,98105.25
2023-02-19T05:10:06.525Z,98112.00
2023-02-19T05:11:12.635Z,98104.34
2023-02-19T05:12:15.715Z,98107.66
2023-02-19T05:13:18.521Z,98101.06
2023-02-19T05:14:21.561Z,98104.34
2023-02-19T05:15:24.302Z,98110.72
2023-02-19T05:16:27.636Z,98106.19
2023-02-19T05:17:34.600Z,98097.25
2023-02-19T05:18:37.724Z,98100.72
2023-02-19T05:19:40.678Z,98105.94
2023-02-19T05:20:43.788Z,98112.56
2023-02-19T05:21:46.681Z,98104.03
2023-02-19T05:22:49.554Z,98109.25
2023-02-19T05:23:53.420Z,98099.34
2023-02-19T05:24:56.578Z,98104.25
2023-02-19T05:25:59.496Z,98105.38
2023-02-19T05:27:02.521Z,98110.28
2023-02-19T05:28:17.532Z,98113.75
2023-02-19T05:29:20.456Z,98112.84
2023-02-19T05:30:23.344Z,98110.56
2023-02-19T05:31:26.936Z,98104.75
2023-02-19T05:32:30.036Z,98103.13
2023-02-19T05:33:33.136Z,98106.44
2023-02-19T05:34:36.051Z,98100.12
2023-02-19T05:35:47.616Z,98109.75
2023-02-19T05:36:50.278Z,98101.56
2023-02-19T05:37:52.931Z,98104.88
2023-02-19T05:38:57.365Z,98097.03
2023-02-19T05:40:00.202Z,98094.47
2023-02-19T05:41:09.751Z,98097.38
2023-02-19T05:42:14.516Z,98097.75
2023-02-19T05:43:18.211Z,98095.41
2023-02-19T05:44:21.485Z,98096.00
2023-02-19T05:45:24.309Z,98100.75
2023-02-19T05:46:32.613Z,98104.78
2023-02-19T05:47:35.715Z,98100.03
2023-02-19T05:48:39.762Z,98100.59
2023-02-19T05:49:42.655Z,98112.97
2023-02-19T05:50:45.550Z,98112.97
2023-02-19T05:51:51.353Z,98114.28
2023-02-19T05:52:54.414Z,98114.28
2023-02-19T05:53:57.935Z,98107.34
2023-02-19T05:55:00.694Z,98115.00
2023-02-19T05:56:03.955Z,98109.19
2023-02-19T05:57:06.825Z,98115.41
2023-02-19T05:58:09.717Z,98115.41
2023-02-19T05:59:17.033Z,98118.00
2023-02-19T06:00:20.840Z,98121.19
2023-02-19T06:01:26.988Z,98122.50
2023-02-19T06:02:29.761Z,98120.72
2023-02-19T06:03:32.539Z,98119.25
2023-02-19T06:04:35.348Z,98115.41
2023-02-19T06:05:38.661Z,98122.25
2023-02-19T06:06:42.749Z,98119.19
2023-02-19T06:07:46.102Z,98125.63
2023-02-19T06:08:50.666Z,98120.16
2023-02-19T06:09:53.591Z,98117.16
2023-02-19T06:10:56.413Z,98116.75
2023-02-19T06:11:59.190Z,98113.28
2023-02-19T06:13:01.896Z,98109.81
2023-02-19T06:14:05.346Z,98124.63
2023-02-19T06:15:08.302Z,98115.12
2023-02-19T06:16:12.005Z,98110.63
2023-02-19T06:17:14.801Z,98112.81
2023-02-19T06:18:17.862Z,98112.81
2023-02-19T06:19:21.030Z,98110.69
2023-02-19T06:20:26.030Z,98099.28
2023-02-19T06:21:29.122Z,98101.63
2023-02-19T06:22:31.901Z,98103.47
2023-02-19T06:23:35.177Z,98106.19
2023-02-19T06:24:37.928Z,98102.63
2023-02-19T06:25:40.632Z,98103.06
2023-02-19T06:26:43.474Z,98100.47
2023-02-19T06:27:46.680Z,98102.22
2023-02-19T06:28:51.274Z,98106.13
2023-02-19T06:29:54.229Z,98101.38
2023-02-19T06:30:59.002Z,98097.06
2023-02-19T06:32:02.406Z,98097.06
2023-02-19T06:33:05.210Z,98105.09
2023-02-19T06:34:07.976Z,98103.53
2023-02-19T06:35:10.660Z,98105.81
2023-02-19T06:36:19.210Z,98107.84
2023-02-19T06:37:21.952Z,98102.09
2023-02-19T06:38:24.697Z,98090.44
2023-02-19T06:39:27.842Z,98084.22
2023-02-19T06:40:30.555Z,98081.50
2023-02-19T06:41:33.735Z,98083.09
2023-02-19T06:42:36.471Z,98081.28
2023-02-19T06:43:39.418Z,98089.19
2023-02-19T06:44:42.380Z,98079.22
2023-02-19T06:45:45.380Z,98083.25
2023-02-19T06:46:48.316Z,98080.37
2023-02-19T06:47:51.273Z,98088.72
2023-02-19T06:48:54.471Z,98096.09
2023-02-19T06:49:57.294Z,98085.72
2023-02-19T06:51:00.797Z,98089.75
2023-02-19T06:52:03.918Z,98089.19
2023-02-19T06:53:06.789Z,98086.63
2023-02-19T06:54:09.972Z,98089.50
2023-02-19T06:55:12.866Z,98084.59
2023-02-19T06:56:30.626Z,98085.88
2023-02-19T06:57:33.657Z,98086.03
2023-02-19T06:58:36.522Z,98085.16
2023-02-19T06:59:39.211Z,98082.41
2023-02-19T07:00:41.990Z,98081.13
2023-02-19T07:01:46.411Z,98090.06
2023-02-19T07:02:50.079Z,98085.47
2023-02-19T07:03:53.916Z,98082.13
2023-02-19T07:04:56.892Z,98087.78
2023-02-19T07:06:00.998Z,98082.84
2023-02-19T07:07:04.764Z,98091.97
2023-02-19T07:08:07.588Z,98087.06
2023-02-19T07:09:14.757Z,98091.50
2023-02-19T07:10:18.085Z,98092.38
2023-02-19T07:11:21.007Z,98097.13
2023-02-19T07:12:24.313Z,98091.66
2023-02-19T07:13:27.777Z,98094.56
2023-02-19T07:14:30.817Z,98088.91
2023-02-19T07:15:33.532Z,98086.91
2023-02-19T07:16:37.207Z,98091.81
2023-02-19T07:17:39.953Z,98096.41
2023-02-19T07:18:43.179Z,98089.63
2023-02-19T07:19:45.914Z,98094.41
2023-02-19T07:20:48.856Z,98093.09
2023-02-19T07:21:51.697Z,98089.09
2023-02-19T07:22:55.212Z,98080.28
2023-02-19T07:23:58.479Z,98086.50
2023-02-19T07:25:01.239Z,98082.75
2023-02-19T07:26:04.215Z,98086.53
2023-02-19T07:27:07.137Z,98091.84
2023-02-19T07:28:09.995Z,98093.72
2023-02-19T07:29:12.888Z,98090.72
2023-02-19T07:30:15.888Z,98090.72
2023-02-19T07:31:21.179Z,98086.13
2023-02-19T07:32:24.126Z,98084.97
2023-02-19T07:33:26.982Z,98078.59
2023-02-19T07:34:29.946Z,98081.50
2023-02-19T07:35:32.804Z,98076.75
2023-02-19T07:36:36.212Z,98080.66
2023-02-19T07:37:40.615Z,98082.41
2023-02-19T07:38:44.069Z,98076.06
2023-02-19T07:39:46.999Z,98069.28
2023-02-19T07:40:53.889Z,98071.16
2023-02-19T07:41:58.437Z,98075.78
2023-02-19T07:43:01.281Z,98064.81
2023-02-19T07:44:04.513Z,98064.66
2023-02-19T07:45:08.159Z,98069.41
2023-02-19T07:46:13.192Z,98070.56
2023-02-19T07:47:16.437Z,98068.44
2023-02-19T07:48:19.595Z,98069.00
2023-02-19T07:49:22.413Z,98063.69
2023-02-19T07:50:25.303Z,98066.41
2023-02-19T07:51:28.106Z,98070.31
2023-02-19T07:52:31.208Z,98071.19
2023-02-19T07:53:35.965Z,98071.66
2023-02-19T07:54:38.876Z,98084.91
2023-02-19T07:55:41.689Z,98082.88
2023-02-19T07:56:44.628Z,98082.59
2023-02-19T07:57:47.471Z,98085.66
2023-02-19T07:58:50.382Z,98094.00
2023-02-19T07:59:53.379Z,98096.75
2023-02-19T08:00:56.353Z,98095.91
2023-02-19T08:02:18.084Z,98096.47
2023-02-19T08:03:21.294Z,98099.38
2023-02-19T08:04:24.229Z,98101.53
2023-02-19T08:05:32.384Z,98108.19
2023-02-19T08:06:35.588Z,98114.09
2023-02-19T08:07:38.534Z,98110.66
2023-02-19T08:08:41.779Z,98113.22
2023-02-19T08:09:44.540Z,98114.22
2023-02-19T08:11:06.200Z,98118.28
2023-02-19T08:12:29.452Z,98122.31
2023-02-19T08:13:32.310Z,98116.13
2023-02-19T08:14:35.120Z,98119.84
2023-02-19T08:15:37.745Z,98123.19
2023-02-19T08:16:43.377Z,98123.47
2023-02-19T08:17:46.601Z,98125.75
2023-02-19T08:18:49.682Z,98124.03
2023-02-19T08:19:52.489Z,98133.69
2023-02-19T08:20:56.405Z,98130.31
2023-02-19T08:21:59.425Z,98133.66
2023-02-19T08:23:02.613Z,98132.34
2023-02-19T08:24:06.057Z,98145.34
2023-02-19T08:25:09.030Z,98144.47
2023-02-19T08:26:12.234Z,98134.06
2023-02-19T08:27:15.089Z,98138.38
2023-02-19T08:28:19.053Z,98141.13
2023-02-19T08:29:21.875Z,98133.19
2023-02-19T08:30:24.961Z,98142.72
2023-02-19T08:31:28.097Z,98132.75
2023-02-19T08:32:31.007Z,98136.06
2023-02-19T08:33:34.056Z,98129.44
2023-02-19T08:34:37.600Z,98132.44
2023-02-19T08:35:42.189Z,98129.97
2023-02-19T08:36:45.064Z,98124.50
2023-02-19T08:37:48.162Z,98127.66
2023-02-19T08:38:51.082Z,98123.31
2023-02-19T08:39:58.624Z,98122.91
2023-02-19T08:41:04.676Z,98119.88
2023-02-19T08:42:07.731Z,98122.75
2023-02-19T08:43:15.871Z,98119.72
2023-02-19T08:44:18.797Z,98118.87
2023-02-19T08:45:21.762Z,98117.44
2023-02-19T08:46:25.024Z,98118.16
2023-02-19T08:47:27.957Z,98124.19
2023-02-19T08:48:31.105Z,98115.69
2023-02-19T08:49:33.971Z,98123.91
2023-02-19T08:50:38.338Z,98124.44
2023-02-19T08:51:42.040Z,98115.50
2023-02-19T08:52:45.190Z,98123.19
2023-02-19T08:53:48.397Z,98111.34
2023-02-19T08:54:51.460Z,98114.41
2023-02-19T08:55:55.036Z,98124.22
2023-02-19T08:56:58.620Z,98122.34
2023-02-19T08:58:01.752Z,98120.72
2023-02-19T08:59:04.661Z,98113.22
2023-02-19T09:00:09.103Z,98118.75
2023-02-19T09:01:14.818Z,98113.69
2023-02-19T09:02:18.048Z,98121.03
2023-02-19T09:03:20.903Z,98122.16
2023-02-19T09:04:23.880Z,98121.91
2023-02-19T09:05:26.945Z,98122.91
2023-02-19T09:06:29.917Z,98126.37
2023-02-19T09:07:33.049Z,98132.41
2023-02-19T09:08:35.910Z,98126.94
2023-02-19T09:09:39.636Z,98128.84
2023-02-19T09:10:42.769Z,98125.56
2023-02-19T09:11:47.396Z,98128.72
2023-02-19T09:12:51.373Z,98127.69
2023-02-19T09:13:56.803Z,98132.13
2023-02-19T09:15:00.574Z,98122.16
2023-02-19T09:16:05.281Z,98129.22
2023-02-19T09:17:10.063Z,98120.72
2023-02-19T09:18:13.868Z,98127.09
2023-02-19T09:19:16.883Z,98125.78
2023-02-19T09:20:20.240Z,98127.69
2023-02-19T09:21:23.972Z,98118.16
2023-02-19T09:22:26.967Z,98123.47
2023-02-19T09:23:30.466Z,98129.12
2023-02-19T09:24:33.713Z,98135.63
2023-02-19T09:25:36.529Z,98125.13
2023-02-19T09:26:39.430Z,98132.59
2023-02-19T09:27:42.405Z,98124.50
2023-02-19T09:28:45.263Z,98123.63
2023-02-19T09:29:48.648Z,98121.16
2023-02-19T09:30:51.547Z,98129.22
2023-02-19T09:31:58.843Z,98127.63
2023-02-19T09:33:01.720Z,98114.47
2023-02-19T09:34:05.850Z,98118.09
2023-02-19T09:35:08.865Z,98114.69
2023-02-19T09:36:13.902Z,98116.22
2023-02-19T09:37:17.825Z,98110.16
2023-02-19T09:38:20.978Z,98115.31
2023-02-19T09:39:24.790Z,98119.50
2023-02-19T09:40:28.477Z,98119.94
2023-02-19T09:41:35.824Z,98119.66
2023-02-19T09:42:42.078Z,98115.97
2023-02-19T09:43:45.341Z,98110.47
2023-02-19T09:44:56.226Z,98114.38
2023-02-19T09:46:05.328Z,98115.09
2023-02-19T09:47:43.626Z,98115.25
2023-02-19T09:48:46.766Z,98115.12
2023-02-19T09:49:54.347Z,98115.16
2023-02-19T09:50:59.780Z,98112.13
2023-02-19T09:52:25.196Z,98114.44
2023-02-19T09:53:40.486Z,98109.53
2023-02-19T09:54:45.571Z,98120.22
2023-02-19T09:55:49.338Z,98114.16
2023-02-19T09:56:55.586Z,98115.59
2023-02-19T09:58:02.596Z,98115.47
2023-02-19T09:59:07.931Z,98107.81
2023-02-19T10:00:29.489Z,98107.09
2023-02-19T10:01:39.741Z,98109.28
2023-02-19T10:02:43.316Z,98109.00
2023-02-19T10:03:49.268Z,98103.66
2023-02-19T10:04:53.418Z,98102.53
2023-02-19T10:05:59.464Z,98107.88
2023-02-19T10:07:04.141Z,98101.97
2023-02-19T10:08:18.838Z,98105.88
2023-02-19T10:09:27.448Z,98096.75
2023-02-19T10:10:36.546Z,98096.63
2023-02-19T10:11:40.548Z,98100.81
2023-02-19T10:12:50.635Z,98097.63
2023-02-19T10:14:16.091Z,98084.34
2023-02-19T10:15:46.219Z,98098.19
2023-02-19T10:16:50.578Z,98090.38
2023-02-19T10:17:53.506Z,98083.62
2023-02-19T10:18:56.858Z,98087.34
2023-02-19T10:20:03.787Z,98081.03
2023-02-19T10:21:07.277Z,98080.00
2023-02-19T10:22:12.669Z,98080.41
2023-02-19T10:23:16.964Z,98075.78
2023-02-19T10:24:27.903Z,98084.00
2023-02-19T10:25:33.808Z,98079.81
2023-02-19T10:26:37.449Z,98075.56
2023-02-19T10:27:40.563Z,98074.97
2023-02-19T10:28:46.299Z,98081.69
2023-02-19T10:29:51.367Z,98070.63
2023-02-19T10:30:58.456Z,98075.16
2023-02-19T10:32:25.234Z,98069.78
2023-02-19T10:33:49.632Z,98061.91
2023-02-19T10:35:24.928Z,98066.50
2023-02-19T10:36:33.504Z,98063.63
2023-02-19T10:37:44.886Z,98067.13
2023-02-19T10:38:48.653Z,98066.59
2023-02-19T10:39:52.481Z,98060.84
2023-02-19T10:41:05.823Z,98061.22
2023-02-19T10:42:25.804Z,98055.41
2023-02-19T10:43:37.527Z,98060.47
2023-02-19T10:44:47.727Z,98051.34
2023-02-19T10:45:53.242Z,98054.50
2023-02-19T10:47:00.085Z,98057.53
2023-02-19T10:48:04.115Z,98042.66
2023-02-19T10:49:26.944Z,98052.22
2023-02-19T10:50:34.788Z,98042.94
2023-02-19T10:51:41.465Z,98049.16
2023-02-19T10:52:44.629Z,98051.97
2023-02-19T10:54:03.052Z,98049.59
2023-02-19T10:55:25.492Z,98050.00
2023-02-19T10:56:31.576Z,98053.91
2023-02-19T10:57:37.861Z,98051.09
2023-02-19T10:58:45.408Z,98052.88
2023-02-19T10:59:58.216Z,98052.19
2023-02-19T11:01:23.522Z,98047.78
2023-02-19T11:02:27.663Z,98054.19
2023-02-19T11:03:30.556Z,98037.56
2023-02-19T11:04:36.011Z,98037.56
2023-02-19T11:05:41.669Z,98031.34
2023-02-19T11:06:46.964Z,98052.44
2023-02-19T11:07:56.344Z,98046.19
2023-02-19T11:09:01.443Z,98041.25
2023-02-19T11:10:07.634Z,98044.38
2023-02-19T11:11:11.263Z,98044.72
2023-02-19T11:12:35.490Z,98053.47
2023-02-19T11:13:40.385Z,98037.56
2023-02-19T11:14:45.879Z,98051.19
2023-02-19T11:15:53.976Z,98044.94
2023-02-19T11:17:00.804Z,98039.41
2023-02-19T11:18:14.964Z,98047.41
2023-02-19T11:19:29.560Z,98049.87
2023-02-19T11:20:32.772Z,98045.22
2023-02-19T11:21:36.212Z,98032.59
2023-02-19T11:22:42.223Z,98038.38
2023-02-19T11:23:47.769Z,98038.56
2023-02-19T11:24:55.886Z,98048.72
2023-02-19T11:26:06.170Z,98037.72
2023-02-19T11:27:25.269Z,98044.78
2023-02-19T11:28:40.190Z,98043.47
2023-02-19T11:29:43.185Z,98036.00
2023-02-19T11:30:48.039Z,98020.81
2023-02-19T11:31:52.123Z,98026.72
2023-02-19T11:32:55.237Z,98021.66
2023-02-19T11:34:02.251Z,98019.25
2023-02-19T11:35:22.791Z,98018.28
2023-02-19T11:36:37.646Z,98025.94
2023-02-19T11:37:59.227Z,98006.00
2023-02-19T11:39:20.319Z,98020.03
2023-02-19T11:40:34.881Z,98012.03
2023-02-19T11:41:46.847Z,97999.38
2023-02-19T11:43:15.996Z,98006.09
2023-02-19T11:45:08.827Z,97994.19
2023-02-19T11:46:36.795Z,97992.00
2023-02-19T11:48:00.391Z,97986.75
2023-02-19T11:49:21.967Z,97990.38
2023-02-19T11:50:48.869Z,97987.59
2023-02-19T11:52:25.014Z,97991.91
2023-02-19T11:53:32.763Z,97988.44
2023-02-19T11:54:52.932Z,97980.38
2023-02-19T11:56:15.943Z,97990.31
2023-02-19T11:57:35.125Z,97973.87
2023-02-19T11:59:01.370Z,97972.31
2023-02-19T12:00:16.740Z,97973.53
2023-02-19T12:01:43.288Z,97976.84
2023-02-19T12:02:47.686Z,97968.22
2023-02-19T12:03:56.811Z,97951.66
2023-02-19T12:04:59.746Z,97968.00
2023-02-19T12:06:28.317Z,97962.38
2023-02-19T12:07:50.092Z,97954.81
2023-02-19T12:09:12.862Z,97950.25
2023-02-19T12:10:47.706Z,97944.97
2023-02-19T12:11:59.759Z,97955.63
2023-02-19T12:13:47.636Z,97945.56
2023-02-19T12:15:26.626Z,97960.28
2023-02-19T12:16:34.531Z,97937.38
2023-02-19T12:18:34.430Z,97947.94
2023-02-19T12:19:50.044Z,97934.69
2023-02-19T12:21:07.202Z,97955.78
2023-02-19T12:22:25.741Z,97937.41
2023-02-19T12:23:47.050Z,97933.09
2023-02-19T12:24:50.087Z,97936.06
2023-02-19T12:26:07.382Z,97939.31
2023-02-19T12:27:19.248Z,97934.75
2023-02-19T12:28:44.934Z,97928.28
2023-02-19T12:30:17.741Z,97934.81
2023-02-19T12:31:55.306Z,97933.63
2023-02-19T12:33:13.442Z,97945.75
2023-02-19T12:34:35.431Z,97935.72
2023-02-19T12:36:05.228Z,97945.44
2023-02-19T12:37:29.897Z,97929.59
2023-02-19T12:39:11.366Z,97929.22
2023-02-19T12:40:34.526Z,97922.25
2023-02-19T12:42:07.615Z,97937.56
2023-02-19T12:43:18.160Z,97926.53
2023-02-19T12:44:36.496Z,97924.47
2023-02-19T12:46:10.040Z,97942.47
2023-02-19T12:47:29.443Z,97925.69
2023-02-19T12:48:36.801Z,97923.31
2023-02-19T12:49:50.008Z,97931.00
2023-02-19T12:51:14.092Z,97929.19
2023-02-19T12:52:33.722Z,97942.13
2023-02-19T12:53:58.238Z,97947.56
2023-02-19T12:55:27.056Z,97926.63
2023-02-19T12:56:37.313Z,97932.97
2023-02-19T12:57:41.329Z,97927.56
2023-02-19T12:59:00.735Z,97926.84
2023-02-19T13:00:41.768Z,97931.66
2023-02-19T13:01:54.770Z,97916.53
2023-02-19T13:03:04.666Z,97936.72
2023-02-19T13:04:33.161Z,97925.41
2023-02-19T13:06:03.688Z,97930.50
2023-02-19T13:07:17.540Z,97925.97
2023-02-19T13:08:24.991Z,97926.88
2023-02-19T13:09:44.576Z,97931.53
2023-02-19T13:11:12.989Z,97933.59
2023-02-19T13:12:26.583Z,97926.06
2023-02-19T13:13:55.763Z,97912.16
2023-02-19T13:15:01.367Z,97899.09
2023-02-19T13:16:13.907Z,97909.75
2023-02-19T13:17:43.232Z,97893.81
2023-02-19T13:18:51.779Z,97895.13
2023-02-19T13:20:02.548Z,97880.66
2023-02-19T13:21:06.636Z,97889.25
2023-02-19T13:23:09.238Z,97891.53